sensor_id;sensor_type;location;lat;lon;timestamp;pressure;altitude;pressure_sealevel;temperature;humidity
79577;BME280;69045;48.136;11.386;2023-05-10T00:01:43;94745.03;;;17.65;74.33
79577;BME280;69045;48.136;11.386;2023-05-10T00:04:12;94746.63;;;17.61;74.23
79577;BME280;69045;48.136;11.386;2023-05-10T00:06:40;94741.91;;;17.58;74.19
79577;BME280;69045;48.136;11.386;2023-05-10T00:09:09;94748.53;;;17.55;74.61
79577;BME280;69045;48.136;11.386;2023-05-10T00:11:37;94741.63;;;17.54;74.11
79577;BME280;69045;48.136;11.386;2023-05-10T00:14:05;94742.19;;;17.51;74.28
79577;BME280;69045;48.136;11.386;2023-05-10T00:16:35;94738.25;;;17.49;74.56
79577;BME280;69045;48.136;11.386;2023-05-10T00:19:03;94732.41;;;17.46;74.44
79577;BME280;69045;48.136;11.386;2023-05-10T00:21:32;94732.16;;;17.48;74.75
79577;BME280;69045;48.136;11.386;2023-05-10T00:24:00;94728.69;;;17.47;74.19
79577;BME280;69045;48.136;11.386;2023-05-10T00:26:28;94732.97;;;17.49;74.21
79577;BME280;69045;48.136;11.386;2023-05-10T00:28:57;94725.53;;;17.45;73.67
79577;BME280;69045;48.136;11.386;2023-05-10T00:31:25;94725.81;;;17.44;73.54
79577;BME280;69045;48.136;11.386;2023-05-10T00:33:55;94725.03;;;17.43;73.64
79577;BME280;69045;48.136;11.386;2023-05-10T00:36:23;94720.81;;;17.42;73.68
79577;BME280;69045;48.136;11.386;2023-05-10T00:38:52;94724.25;;;17.38;74.10
79577;BME280;69045;48.136;11.386;2023-05-10T00:41:20;94730.13;;;17.35;74.14
79577;BME280;69045;48.136;11.386;2023-05-10T00:43:49;94716.88;;;17.35;74.47
79577;BME280;69045;48.136;11.386;2023-05-10T00:46:18;94729.34;;;17.34;74.33
79577;BME280;69045;48.136;11.386;2023-05-10T00:48:46;94729.84;;;17.31;74.28
79577;BME280;69045;48.136;11.386;2023-05-10T00:51:17;94719.03;;;17.28;75.07
79577;BME280;69045;48.136;11.386;2023-05-10T00:53:46;94721.16;;;17.26;75.22
79577;BME280;69045;48.136;11.386;2023-05-10T00:56:15;94727.50;;;17.25;74.92
79577;BME280;69045;48.136;11.386;2023-05-10T00:58:43;94721.44;;;17.24;74.74
79577;BME280;69045;48.136;11.386;2023-05-10T01:01:12;94719.84;;;17.23;74.25
79577;BME280;69045;48.136;11.386;2023-05-10T01:03:41;94724.63;;;17.21;74.70
79577;BME280;69045;48.136;11.386;2023-05-10T01:06:10;94718.28;;;17.17;74.32
79577;BME280;69045;48.136;11.386;2023-05-10T01:08:40;94716.72;;;17.16;74.74
79577;BME280;69045;48.136;11.386;2023-05-10T01:11:09;94716.72;;;17.16;74.65
79577;BME280;69045;48.136;11.386;2023-05-10T01:13:40;94716.44;;;17.17;74.75
79577;BME280;69045;48.136;11.386;2023-05-10T01:16:10;94719.88;;;17.18;74.61
79577;BME280;69045;48.136;11.386;2023-05-10T01:18:40;94718.56;;;17.21;74.66
79577;BME280;69045;48.136;11.386;2023-05-10T01:21:19;94714.56;;;17.18;74.53
79577;BME280;69045;48.136;11.386;2023-05-10T01:27:41;94715.44;;;17.08;74.57
79577;BME280;69045;48.136;11.386;2023-05-10T01:30:35;94711.44;;;17.11;74.95
79577;BME280;69045;48.136;11.386;2023-05-10T01:33:19;94713.00;;;17.12;75.06
79577;BME280;69045;48.136;11.386;2023-05-10T01:35:55;94711.16;;;17.12;74.78
79577;BME280;69045;48.136;11.386;2023-05-10T01:38:33;94715.66;;;17.12;74.99
79577;BME280;69045;48.136;11.386;2023-05-10T01:41:14;94713.00;;;17.12;75.09
79577;BME280;69045;48.136;11.386;2023-05-10T01:43:56;94720.16;;;17.11;75.09
79577;BME280;69045;48.136;11.386;2023-05-10T01:46:31;94716.72;;;17.11;75.09
79577;BME280;69045;48.136;11.386;2023-05-10T01:49:08;94715.94;;;17.10;74.76
79577;BME280;69045;48.136;11.386;2023-05-10T01:51:42;94705.63;;;17.09;75.20
79577;BME280;69045;48.136;11.386;2023-05-10T01:54:17;94717.78;;;17.10;75.00
79577;BME280;69045;48.136;11.386;2023-05-10T01:57:06;94709.56;;;17.11;75.01
79577;BME280;69045;48.136;11.386;2023-05-10T01:59:38;94719.94;;;17.08;75.38
79577;BME280;69045;48.136;11.386;2023-05-10T02:02:10;94721.25;;;17.05;75.28
79577;BME280;69045;48.136;11.386;2023-05-10T02:04:42;94720.44;;;17.05;75.02
79577;BME280;69045;48.136;11.386;2023-05-10T02:07:12;94710.16;;;17.03;75.25
79577;BME280;69045;48.136;11.386;2023-05-10T02:09:44;94724.44;;;17.02;75.65
79577;BME280;69045;48.136;11.386;2023-05-10T02:12:16;94725.50;;;17.01;75.52
79577;BME280;69045;48.136;11.386;2023-05-10T02:14:47;94722.31;;;16.99;75.50
79577;BME280;69045;48.136;11.386;2023-05-10T02:17:16;94721.53;;;16.99;75.08
79577;BME280;69045;48.136;11.386;2023-05-10T02:19:47;94726.81;;;16.99;75.01
79577;BME280;69045;48.136;11.386;2023-05-10T02:22:17;94718.09;;;16.98;75.46
79577;BME280;69045;48.136;11.386;2023-05-10T02:24:47;94725.53;;;16.96;75.43
79577;BME280;69045;48.136;11.386;2023-05-10T02:27:19;94725.25;;;16.98;75.21
79577;BME280;69045;48.136;11.386;2023-05-10T02:29:50;94727.63;;;16.99;74.92
79577;BME280;69045;48.136;11.386;2023-05-10T02:32:19;94723.13;;;17.00;75.55
79577;BME280;69045;48.136;11.386;2023-05-10T02:34:52;94722.88;;;16.96;74.81
79577;BME280;69045;48.136;11.386;2023-05-10T02:37:22;94726.31;;;16.97;74.88
79577;BME280;69045;48.136;11.386;2023-05-10T02:39:53;94728.97;;;16.97;75.27
79577;BME280;69045;48.136;11.386;2023-05-10T02:42:25;94722.09;;;16.96;75.60
79577;BME280;69045;48.136;11.386;2023-05-10T02:44:59;94723.94;;;16.95;75.32
79577;BME280;69045;48.136;11.386;2023-05-10T02:47:28;94718.94;;;16.94;75.85
79577;BME280;69045;48.136;11.386;2023-05-10T02:49:59;94722.63;;;16.92;75.32
79577;BME280;69045;48.136;11.386;2023-05-10T02:52:37;94722.38;;;16.94;75.51
79577;BME280;69045;48.136;11.386;2023-05-10T02:55:09;94720.75;;;16.93;75.84
79577;BME280;69045;48.136;11.386;2023-05-10T02:57:45;94722.09;;;16.96;75.94
79577;BME280;69045;48.136;11.386;2023-05-10T03:00:17;94723.94;;;16.95;75.85
79577;BME280;69045;48.136;11.386;2023-05-10T03:02:45;94729.25;;;16.95;75.31
79577;BME280;69045;48.136;11.386;2023-05-10T03:05:15;94729.75;;;16.97;75.30
79577;BME280;69045;48.136;11.386;2023-05-10T03:07:44;94728.41;;;17.00;75.10
79577;BME280;69045;48.136;11.386;2023-05-10T03:10:13;94729.22;;;17.00;75.15
79577;BME280;69045;48.136;11.386;2023-05-10T03:12:57;94733.97;;;17.03;74.77
79577;BME280;69045;48.136;11.386;2023-05-10T03:15:42;94733.94;;;17.08;74.42
79577;BME280;69045;48.136;11.386;2023-05-10T03:18:15;94735.03;;;17.07;74.47
79577;BME280;69045;48.136;11.386;2023-05-10T03:20:48;94736.84;;;17.07;74.26
79577;BME280;69045;48.136;11.386;2023-05-10T03:23:25;94738.47;;;17.08;74.49
79577;BME280;69045;48.136;11.386;2023-05-10T03:25:55;94736.06;;;17.06;74.45
79577;BME280;69045;48.136;11.386;2023-05-10T03:28:25;94746.13;;;17.04;74.50
79577;BME280;69045;48.136;11.386;2023-05-10T03:30:58;94741.38;;;17.01;74.31
79577;BME280;69045;48.136;11.386;2023-05-10T03:33:29;94740.31;;;17.02;74.21
79577;BME280;69045;48.136;11.386;2023-05-10T03:35:58;94740.06;;;16.99;75.18
79577;BME280;69045;48.136;11.386;2023-05-10T03:38:27;94744.31;;;16.95;74.53
79577;BME280;69045;48.136;11.386;2023-05-10T03:40:56;94743.53;;;16.94;75.00
79577;BME280;69045;48.136;11.386;2023-05-10T03:43:24;94745.91;;;16.96;74.71
79577;BME280;69045;48.136;11.386;2023-05-10T03:45:52;94747.47;;;16.97;74.95
79577;BME280;69045;48.136;11.386;2023-05-10T03:48:20;94748.78;;;16.99;74.35
79577;BME280;69045;48.136;11.386;2023-05-10T03:50:48;94748.25;;;17.02;74.58
79577;BME280;69045;48.136;11.386;2023-05-10T03:53:18;94752.78;;;17.02;74.38
79577;BME280;69045;48.136;11.386;2023-05-10T03:55:47;94758.84;;;17.02;74.29
79577;BME280;69045;48.136;11.386;2023-05-10T03:58:16;94763.06;;;17.03;74.27
79577;BME280;69045;48.136;11.386;2023-05-10T04:00:44;94764.13;;;17.02;74.14
79577;BME280;69045;48.136;11.386;2023-05-10T04:03:14;94761.22;;;16.99;74.47
79577;BME280;69045;48.136;11.386;2023-05-10T04:05:42;94763.88;;;16.99;74.94
79577;BME280;69045;48.136;11.386;2023-05-10T04:08:11;94765.50;;;16.95;74.80
79577;BME280;69045;48.136;11.386;2023-05-10T04:10:43;94755.97;;;16.94;75.24
79577;BME280;69045;48.136;11.386;2023-05-10T04:13:11;94757.28;;;16.96;74.74
79577;BME280;69045;48.136;11.386;2023-05-10T04:15:39;94762.00;;;16.99;74.48
79577;BME280;69045;48.136;11.386;2023-05-10T04:18:06;94762.78;;;17.10;74.21
79577;BME280;69045;48.136;11.386;2023-05-10T04:20:34;94769.59;;;17.26;73.90
79577;BME280;69045;48.136;11.386;2023-05-10T04:23:02;94766.34;;;17.39;73.02
79577;BME280;69045;48.136;11.386;2023-05-10T04:25:33;94769.78;;;17.45;72.24
79577;BME280;69045;48.136;11.386;2023-05-10T04:28:03;94770.28;;;17.47;72.25
79577;BME280;69045;48.136;11.386;2023-05-10T04:30:31;94775.28;;;17.54;72.19
79577;BME280;69045;48.136;11.386;2023-05-10T04:32:59;94774.38;;;17.79;71.41
79577;BME280;69045;48.136;11.386;2023-05-10T04:35:28;94775.44;;;17.83;68.78
79577;BME280;69045;48.136;11.386;2023-05-10T04:37:57;94777.59;;;17.76;68.68
79577;BME280;69045;48.136;11.386;2023-05-10T04:40:25;94785.31;;;17.62;68.65
79577;BME280;69045;48.136;11.386;2023-05-10T04:42:54;94777.44;;;17.46;69.58
79577;BME280;69045;48.136;11.386;2023-05-10T04:45:23;94785.44;;;17.36;70.10
79577;BME280;69045;48.136;11.386;2023-05-10T04:47:51;94782.78;;;17.36;69.66
79577;BME280;69045;48.136;11.386;2023-05-10T04:50:20;94791.00;;;17.35;69.73
79577;BME280;69045;48.136;11.386;2023-05-10T04:52:48;94790.22;;;17.34;70.05
79577;BME280;69045;48.136;11.386;2023-05-10T04:55:19;94805.06;;;17.30;70.00
79577;BME280;69045;48.136;11.386;2023-05-10T04:57:50;94805.63;;;17.22;70.75
79577;BME280;69045;48.136;11.386;2023-05-10T05:00:19;94807.22;;;17.18;70.67
79577;BME280;69045;48.136;11.386;2023-05-10T05:02:50;94809.38;;;17.06;71.70
79577;BME280;69045;48.136;11.386;2023-05-10T05:05:18;94811.78;;;17.02;72.38
79577;BME280;69045;48.136;11.386;2023-05-10T05:07:46;94816.78;;;17.04;71.77
79577;BME280;69045;48.136;11.386;2023-05-10T05:10:15;94827.09;;;17.10;71.94
79577;BME280;69045;48.136;11.386;2023-05-10T05:12:43;94824.38;;;17.26;70.56
79577;BME280;69045;48.136;11.386;2023-05-10T05:15:12;94829.16;;;17.24;71.05
79577;BME280;69045;48.136;11.386;2023-05-10T05:17:40;94831.31;;;17.11;71.29
79577;BME280;69045;48.136;11.386;2023-05-10T05:20:10;94832.94;;;17.07;70.92
79577;BME280;69045;48.136;11.386;2023-05-10T05:22:40;94837.41;;;17.07;71.41
79577;BME280;69045;48.136;11.386;2023-05-10T05:25:08;94834.25;;;17.10;70.78
79577;BME280;69045;48.136;11.386;2023-05-10T05:27:38;94845.63;;;17.10;69.89
79577;BME280;69045;48.136;11.386;2023-05-10T05:30:07;94839.25;;;17.11;69.95
79577;BME280;69045;48.136;11.386;2023-05-10T05:32:35;94846.34;;;17.31;68.49
79577;BME280;69045;48.136;11.386;2023-05-10T05:35:04;94841.56;;;17.43;68.48
79577;BME280;69045;48.136;11.386;2023-05-10T05:37:34;94842.13;;;17.35;68.45
79577;BME280;69045;48.136;11.386;2023-05-10T05:40:05;94851.41;;;17.23;69.06
79577;BME280;69045;48.136;11.386;2023-05-10T05:42:33;94852.72;;;17.25;68.95
79577;BME280;69045;48.136;11.386;2023-05-10T05:45:01;94850.59;;;17.27;68.73
79577;BME280;69045;48.136;11.386;2023-05-10T05:47:30;94840.28;;;17.26;69.23
79577;BME280;69045;48.136;11.386;2023-05-10T05:49:58;94846.41;;;17.11;69.95
79577;BME280;69045;48.136;11.386;2023-05-10T05:52:26;94855.44;;;17.00;70.82
79577;BME280;69045;48.136;11.386;2023-05-10T05:54:56;94857.84;;;16.91;71.35
79577;BME280;69045;48.136;11.386;2023-05-10T05:57:24;94856.78;;;16.87;71.40
79577;BME280;69045;48.136;11.386;2023-05-10T05:59:54;94854.41;;;16.80;72.24
79577;BME280;69045;48.136;11.386;2023-05-10T06:02:22;94862.59;;;16.79;72.62
79577;BME280;69045;48.136;11.386;2023-05-10T06:04:50;94859.16;;;16.78;72.06
79577;BME280;69045;48.136;11.386;2023-05-10T06:07:20;94858.09;;;16.79;72.34
79577;BME280;69045;48.136;11.386;2023-05-10T06:09:49;94868.16;;;16.77;72.52
79577;BME280;69045;48.136;11.386;2023-05-10T06:12:18;94869.22;;;16.81;72.15
79577;BME280;69045;48.136;11.386;2023-05-10T06:14:47;94872.41;;;16.94;71.88
79577;BME280;69045;48.136;11.386;2023-05-10T06:17:15;94873.69;;;17.06;71.65
79577;BME280;69045;48.136;11.386;2023-05-10T06:19:44;94880.53;;;17.28;70.64
79577;BME280;69045;48.136;11.386;2023-05-10T06:22:12;94887.09;;;17.40;70.35
79577;BME280;69045;48.136;11.386;2023-05-10T06:24:40;94886.00;;;17.46;70.24
79577;BME280;69045;48.136;11.386;2023-05-10T06:27:09;94889.94;;;17.64;69.87
79577;BME280;69045;48.136;11.386;2023-05-10T06:29:39;94891.75;;;17.84;69.43
79577;BME280;69045;48.136;11.386;2023-05-10T06:32:07;94897.50;;;17.96;69.50
79577;BME280;69045;48.136;11.386;2023-05-10T06:34:36;94897.16;;;18.13;68.67
79577;BME280;69045;48.136;11.386;2023-05-10T06:37:04;94896.78;;;18.30;67.78
79577;BME280;69045;48.136;11.386;2023-05-10T06:39:33;94898.25;;;18.46;67.64
79577;BME280;69045;48.136;11.386;2023-05-10T06:42:01;94908.25;;;18.60;66.49
79577;BME280;69045;48.136;11.386;2023-05-10T06:44:31;94899.19;;;18.71;66.29
79577;BME280;69045;48.136;11.386;2023-05-10T06:47:01;94904.06;;;18.88;65.80
79577;BME280;69045;48.136;11.386;2023-05-10T06:49:29;94902.44;;;18.97;65.27
79577;BME280;69045;48.136;11.386;2023-05-10T06:51:57;94900.94;;;19.09;64.94
79577;BME280;69045;48.136;11.386;2023-05-10T06:54:25;94905.03;;;19.31;65.08
79577;BME280;69045;48.136;11.386;2023-05-10T06:56:53;94909.19;;;19.66;63.40
79577;BME280;69045;48.136;11.386;2023-05-10T06:59:23;94913.28;;;20.01;62.63
79577;BME280;69045;48.136;11.386;2023-05-10T07:01:51;94918.03;;;20.23;60.76
79577;BME280;69045;48.136;11.386;2023-05-10T07:04:22;94915.00;;;20.30;60.67
79577;BME280;69045;48.136;11.386;2023-05-10T07:06:56;94920.66;;;20.47;60.39
79577;BME280;69045;48.136;11.386;2023-05-10T07:09:26;94924.53;;;20.55;59.51
79577;BME280;69045;48.136;11.386;2023-05-10T07:11:53;94917.22;;;20.47;58.74
79577;BME280;69045;48.136;11.386;2023-05-10T07:14:23;94927.06;;;20.46;59.13
79577;BME280;69045;48.136;11.386;2023-05-10T07:16:51;94918.91;;;20.37;58.49
79577;BME280;69045;48.136;11.386;2023-05-10T07:19:19;94926.25;;;20.27;58.97
79577;BME280;69045;48.136;11.386;2023-05-10T07:21:50;94924.28;;;20.13;58.94
79577;BME280;69045;48.136;11.386;2023-05-10T07:24:18;94935.66;;;20.19;59.30
79577;BME280;69045;48.136;11.386;2023-05-10T07:26:46;94926.59;;;20.20;59.13
79577;BME280;69045;48.136;11.386;2023-05-10T07:29:14;94929.41;;;20.29;58.55
79577;BME280;69045;48.136;11.386;2023-05-10T07:31:42;94926.75;;;20.29;57.91
79577;BME280;69045;48.136;11.386;2023-05-10T07:34:10;94928.97;;;20.22;58.63
79577;BME280;69045;48.136;11.386;2023-05-10T07:36:38;94933.56;;;20.16;58.91
79577;BME280;69045;48.136;11.386;2023-05-10T07:39:08;94927.44;;;20.15;58.45
79577;BME280;69045;48.136;11.386;2023-05-10T07:41:38;94932.41;;;20.22;58.84
79577;BME280;69045;48.136;11.386;2023-05-10T07:44:06;94927.75;;;20.33;58.83
79577;BME280;69045;48.136;11.386;2023-05-10T07:46:34;94932.50;;;20.36;57.54
79577;BME280;69045;48.136;11.386;2023-05-10T07:49:04;94935.22;;;20.31;57.63
79577;BME280;69045;48.136;11.386;2023-05-10T07:51:51;94928.97;;;20.22;58.06
79577;BME280;69045;48.136;11.386;2023-05-10T07:54:21;94928.13;;;20.26;57.21
79577;BME280;69045;48.136;11.386;2023-05-10T07:56:49;94934.94;;;20.32;57.23
79577;BME280;69045;48.136;11.386;2023-05-10T07:59:18;94925.25;;;20.41;56.82
79577;BME280;69045;48.136;11.386;2023-05-10T08:01:47;94935.47;;;20.53;56.67
79577;BME280;69045;48.136;11.386;2023-05-10T08:04:15;94931.94;;;20.58;57.10
79577;BME280;69045;48.136;11.386;2023-05-10T08:06:43;94932.66;;;20.63;56.33
79577;BME280;69045;48.136;11.386;2023-05-10T08:09:11;94923.22;;;20.52;55.90
79577;BME280;69045;48.136;11.386;2023-05-10T08:11:41;94925.72;;;20.43;56.28
79577;BME280;69045;48.136;11.386;2023-05-10T08:14:09;94926.16;;;20.32;56.39
79577;BME280;69045;48.136;11.386;2023-05-10T08:16:37;94927.53;;;20.29;56.88
79577;BME280;69045;48.136;11.386;2023-05-10T08:19:05;94930.34;;;20.19;56.79
79577;BME280;69045;48.136;11.386;2023-05-10T08:21:33;94926.50;;;20.25;57.35
79577;BME280;69045;48.136;11.386;2023-05-10T08:24:02;94932.97;;;20.38;57.24
79577;BME280;69045;48.136;11.386;2023-05-10T08:26:33;94927.06;;;20.46;56.88
79577;BME280;69045;48.136;11.386;2023-05-10T08:29:02;94936.38;;;20.43;56.60
79577;BME280;69045;48.136;11.386;2023-05-10T08:31:30;94937.44;;;20.48;56.03
79577;BME280;69045;48.136;11.386;2023-05-10T08:33:58;94931.16;;;20.57;54.76
79577;BME280;69045;48.136;11.386;2023-05-10T08:36:27;94936.19;;;20.59;54.56
79577;BME280;69045;48.136;11.386;2023-05-10T08:38:56;94937.09;;;20.87;55.21
79577;BME280;69045;48.136;11.386;2023-05-10T08:41:33;94938.25;;;21.46;53.78
79577;BME280;69045;48.136;11.386;2023-05-10T08:44:04;94930.56;;;21.86;51.39
79577;BME280;69045;48.136;11.386;2023-05-10T08:46:34;94935.13;;;21.85;51.03
79577;BME280;69045;48.136;11.386;2023-05-10T08:49:07;94932.84;;;21.78;50.26
79577;BME280;69045;48.136;11.386;2023-05-10T08:51:37;94933.25;;;21.72;51.40
79577;BME280;69045;48.136;11.386;2023-05-10T08:54:10;94937.69;;;21.49;51.12
79577;BME280;69045;48.136;11.386;2023-05-10T08:56:39;94941.84;;;21.22;51.73
79577;BME280;69045;48.136;11.386;2023-05-10T08:59:09;94941.19;;;20.98;52.83
79577;BME280;69045;48.136;11.386;2023-05-10T09:01:40;94939.84;;;20.82;53.13
79577;BME280;69045;48.136;11.386;2023-05-10T09:04:11;94934.22;;;20.64;53.86
79577;BME280;69045;48.136;11.386;2023-05-10T09:06:39;94937.63;;;20.70;54.04
79577;BME280;69045;48.136;11.386;2023-05-10T09:09:07;94947.25;;;20.85;53.41
79577;BME280;69045;48.136;11.386;2023-05-10T09:11:36;94944.66;;;21.12;53.18
79577;BME280;69045;48.136;11.386;2023-05-10T09:14:04;94943.25;;;21.34;52.40
79577;BME280;69045;48.136;11.386;2023-05-10T09:16:34;94948.34;;;21.49;52.13
79577;BME280;69045;48.136;11.386;2023-05-10T09:19:03;94941.13;;;21.49;51.70
79577;BME280;69045;48.136;11.386;2023-05-10T09:21:31;94949.69;;;21.46;50.23
79577;BME280;69045;48.136;11.386;2023-05-10T09:24:02;94948.72;;;21.42;50.87
79577;BME280;69045;48.136;11.386;2023-05-10T09:26:31;94943.25;;;21.34;51.02
79577;BME280;69045;48.136;11.386;2023-05-10T09:29:00;94949.34;;;21.20;51.30
79577;BME280;69045;48.136;11.386;2023-05-10T09:31:47;94945.19;;;21.14;52.36
79577;BME280;69045;48.136;11.386;2023-05-10T09:34:18;94954.38;;;21.22;52.33
79577;BME280;69045;48.136;11.386;2023-05-10T09:36:55;94946.44;;;21.36;52.50
79577;BME280;69045;48.136;11.386;2023-05-10T09:39:31;94945.00;;;21.57;50.52
79577;BME280;69045;48.136;11.386;2023-05-10T09:42:02;94941.06;;;21.82;50.19
79577;BME280;69045;48.136;11.386;2023-05-10T09:44:31;94935.03;;;22.18;49.47
79577;BME280;69045;48.136;11.386;2023-05-10T09:47:01;94940.41;;;22.40;48.68
79577;BME280;69045;48.136;11.386;2023-05-10T09:49:31;94934.56;;;22.52;47.94
79577;BME280;69045;48.136;11.386;2023-05-10T09:52:01;94939.44;;;22.50;47.93
79577;BME280;69045;48.136;11.386;2023-05-10T09:54:30;94937.16;;;22.43;48.14
79577;BME280;69045;48.136;11.386;2023-05-10T09:56:58;94934.22;;;22.67;47.78
79577;BME280;69045;48.136;11.386;2023-05-10T09:59:28;94941.06;;;22.96;47.05
79577;BME280;69045;48.136;11.386;2023-05-10T10:01:58;94931.91;;;23.10;45.82
79577;BME280;69045;48.136;11.386;2023-05-10T10:04:29;94937.97;;;23.25;45.35
79577;BME280;69045;48.136;11.386;2023-05-10T10:07:02;94940.13;;;23.45;44.79
79577;BME280;69045;48.136;11.386;2023-05-10T10:09:33;94931.44;;;23.70;45.37
79577;BME280;69045;48.136;11.386;2023-05-10T10:12:02;94935.31;;;24.04;45.47
79577;BME280;69045;48.136;11.386;2023-05-10T10:14:31;94919.53;;;24.42;43.29
79577;BME280;69045;48.136;11.386;2023-05-10T10:17:00;94925.06;;;24.81;43.05
79577;BME280;69045;48.136;11.386;2023-05-10T10:19:34;94924.88;;;25.03;42.27
79577;BME280;69045;48.136;11.386;2023-05-10T10:22:03;94926.63;;;24.90;41.27
79577;BME280;69045;48.136;11.386;2023-05-10T10:24:33;94937.16;;;24.52;42.31
79577;BME280;69045;48.136;11.386;2023-05-10T10:27:19;94926.44;;;24.35;43.17
79577;BME280;69045;48.136;11.386;2023-05-10T10:29:59;94930.88;;;23.91;44.61
79577;BME280;69045;48.136;11.386;2023-05-10T10:32:46;94923.75;;;23.47;46.87
79577;BME280;69045;48.136;11.386;2023-05-10T10:35:21;94929.41;;;22.92;48.79
79577;BME280;69045;48.136;11.386;2023-05-10T10:37:50;94926.88;;;22.50;48.80
79577;BME280;69045;48.136;11.386;2023-05-10T10:40:26;94923.66;;;22.26;50.04
79577;BME280;69045;48.136;11.386;2023-05-10T10:42:55;94922.56;;;22.13;51.22
79577;BME280;69045;48.136;11.386;2023-05-10T10:45:25;94922.56;;;21.99;51.72
79577;BME280;69045;48.136;11.386;2023-05-10T10:48:21;94916.53;;;21.80;52.76
79577;BME280;69045;48.136;11.386;2023-05-10T10:50:57;94917.34;;;21.80;53.27
79577;BME280;69045;48.136;11.386;2023-05-10T10:53:26;94916.84;;;21.65;51.97
79577;BME280;69045;48.136;11.386;2023-05-10T10:56:05;94917.25;;;21.58;52.40
79577;BME280;69045;48.136;11.386;2023-05-10T10:58:35;94912.22;;;21.57;51.31
79577;BME280;69045;48.136;11.386;2023-05-10T11:01:12;94917.13;;;21.36;51.70
79577;BME280;69045;48.136;11.386;2023-05-10T11:03:55;94915.94;;;21.28;52.29
79577;BME280;69045;48.136;11.386;2023-05-10T11:06:44;94924.56;;;21.20;52.24
79577;BME280;69045;48.136;11.386;2023-05-10T11:09:12;94931.06;;;21.14;52.99
79577;BME280;69045;48.136;11.386;2023-05-10T11:11:52;94929.69;;;21.16;52.24
79577;BME280;69045;48.136;11.386;2023-05-10T11:14:22;94942.31;;;21.11;52.38
79577;BME280;69045;48.136;11.386;2023-05-10T11:16:51;94951.31;;;21.15;51.94
79577;BME280;69045;48.136;11.386;2023-05-10T11:19:19;94956.16;;;20.94;52.37
79577;BME280;69045;48.136;11.386;2023-05-10T11:21:50;94958.34;;;20.73;52.74
79577;BME280;69045;48.136;11.386;2023-05-10T11:24:22;94960.84;;;20.45;53.58
79577;BME280;69045;48.136;11.386;2023-05-10T11:26:55;94951.53;;;20.24;54.04
79577;BME280;69045;48.136;11.386;2023-05-10T11:29:24;94964.94;;;19.95;54.67
79577;BME280;69045;48.136;11.386;2023-05-10T11:31:57;94961.25;;;19.67;55.62
79577;BME280;69045;48.136;11.386;2023-05-10T11:34:28;94969.16;;;19.43;56.25
79577;BME280;69045;48.136;11.386;2023-05-10T11:36:58;94973.38;;;19.20;56.26
79577;BME280;69045;48.136;11.386;2023-05-10T11:39:28;94978.66;;;18.91;58.62
79577;BME280;69045;48.136;11.386;2023-05-10T11:41:57;94974.81;;;18.68;59.55
79577;BME280;69045;48.136;11.386;2023-05-10T11:44:29;94979.97;;;18.44;60.88
79577;BME280;69045;48.136;11.386;2023-05-10T11:46:59;94984.25;;;18.40;62.17
79577;BME280;69045;48.136;11.386;2023-05-10T11:49:28;94985.41;;;18.24;62.59
79577;BME280;69045;48.136;11.386;2023-05-10T11:52:05;94985.97;;;18.11;62.86
79577;BME280;69045;48.136;11.386;2023-05-10T11:54:34;94994.50;;;17.97;63.04
79577;BME280;69045;48.136;11.386;2023-05-10T11:57:02;94988.72;;;17.80;64.28
79577;BME280;69045;48.136;11.386;2023-05-10T11:59:31;94983.19;;;17.77;64.87
79577;BME280;69045;48.136;11.386;2023-05-10T12:02:00;94988.22;;;17.73;65.79
79577;BME280;69045;48.136;11.386;2023-05-10T12:04:29;94987.16;;;17.69;65.05
79577;BME280;69045;48.136;11.386;2023-05-10T12:06:58;94993.81;;;17.61;64.96
79577;BME280;69045;48.136;11.386;2023-05-10T12:09:27;94991.66;;;17.58;65.34
79577;BME280;69045;48.136;11.386;2023-05-10T12:12:09;94999.63;;;17.58;65.62
79577;BME280;69045;48.136;11.386;2023-05-10T12:14:38;94997.75;;;17.59;65.98
79577;BME280;69045;48.136;11.386;2023-05-10T12:17:06;94998.56;;;17.54;66.31
79577;BME280;69045;48.136;11.386;2023-05-10T12:19:39;94999.38;;;17.50;66.29
79577;BME280;69045;48.136;11.386;2023-05-10T12:22:07;94999.09;;;17.51;66.06
79577;BME280;69045;48.136;11.386;2023-05-10T12:24:37;94993.53;;;17.47;66.79
79577;BME280;69045;48.136;11.386;2023-05-10T12:27:08;94999.88;;;17.46;67.45
79577;BME280;69045;48.136;11.386;2023-05-10T12:29:41;95013.13;;;17.52;67.71
79577;BME280;69045;48.136;11.386;2023-05-10T12:32:11;95007.31;;;17.50;67.67
79577;BME280;69045;48.136;11.386;2023-05-10T12:34:39;95003.59;;;17.45;66.65
79577;BME280;69045;48.136;11.386;2023-05-10T12:37:07;95009.72;;;17.36;67.44
79577;BME280;69045;48.136;11.386;2023-05-10T12:39:43;95018.19;;;17.43;67.47
79577;BME280;69045;48.136;11.386;2023-05-10T12:42:12;95022.66;;;17.53;66.70
79577;BME280;69045;48.136;11.386;2023-05-10T12:44:40;95022.16;;;17.56;67.29
79577;BME280;69045;48.136;11.386;2023-05-10T12:47:08;95020.81;;;17.58;67.56
79577;BME280;69045;48.136;11.386;2023-05-10T12:49:37;95021.31;;;17.60;67.08
79577;BME280;69045;48.136;11.386;2023-05-10T12:52:05;95021.34;;;17.55;67.03
79577;BME280;69045;48.136;11.386;2023-05-10T12:54:34;95013.41;;;17.50;66.84
79577;BME280;69045;48.136;11.386;2023-05-10T12:57:03;95016.84;;;17.56;66.81
79577;BME280;69045;48.136;11.386;2023-05-10T12:59:32;95020.00;;;17.58;67.01
79577;BME280;69045;48.136;11.386;2023-05-10T13:02:03;95021.59;;;17.59;65.96
79577;BME280;69045;48.136;11.386;2023-05-10T13:04:31;95027.97;;;17.58;66.63
79577;BME280;69045;48.136;11.386;2023-05-10T13:06:59;95030.09;;;17.56;66.74
79577;BME280;69045;48.136;11.386;2023-05-10T13:09:27;95030.59;;;17.53;66.72
79577;BME280;69045;48.136;11.386;2023-05-10T13:11:56;95034.88;;;17.43;67.23